Terminal Aerodrome Forecast
Issued by NWS Blacksburg, VA

Current Version | Previous Version | Text Only | Print | Product List | Glossary Off
Versions: 1 2 3 4 5 6 7 8 9 10 11 12 13 14 15 16 17 18 19 20 21 22 23 24 25 26 27 28 29 30 31

000
FTUS41 KRNK 220543
TAFBLF
TAF
KBLF 220543Z 2206/2306 25008KT P6SM SCT080 BKN120
     FM220800 24012KT P6SM BKN050 OVC080
      TEMPO 2208/2210 P6SM -SHRA
     FM221400 26017G28KT P6SM SCT035 OVC050
     FM221600 27020G35KT P6SM BKN035 OVC050 PROB30 2216/2218 5SM
      SHRA BKN030 OVC045
     FM222200 28015G25KT P6SM BKN030=

USA.gov is the U.S. government's official web portal to all federal, state and local government web resources and services.